createdAt,value
2017-07-01T00:00:29.543Z,998.8
2017-07-01T00:01:07.824Z,998.9
2017-07-01T00:01:45.619Z,998.9
2017-07-01T00:02:23.490Z,998.9
2017-07-01T00:03:01.068Z,998.8
2017-07-01T00:03:38.630Z,998.9
2017-07-01T00:04:16.801Z,998.8
2017-07-01T00:04:54.767Z,998.8
2017-07-01T00:05:32.441Z,998.9
2017-07-01T00:06:10.424Z,998.9
2017-07-01T00:06:48.126Z,998.9
2017-07-01T00:07:25.755Z,998.9
2017-07-01T00:08:03.535Z,998.9
2017-07-01T00:08:41.206Z,998.9
2017-07-01T00:09:18.969Z,998.9
2017-07-01T00:09:57.135Z,998.9
2017-07-01T00:10:35.111Z,998.9
2017-07-01T00:11:12.879Z,998.9
2017-07-01T00:11:50.951Z,998.9
2017-07-01T00:12:28.718Z,998.9
2017-07-01T00:13:06.483Z,998.9
2017-07-01T00:13:44.350Z,998.9
2017-07-01T00:14:22.311Z,998.9
2017-07-01T00:15:00.084Z,998.9
2017-07-01T00:15:37.957Z,998.9
2017-07-01T00:16:16.124Z,998.9
2017-07-01T00:16:53.997Z,998.9
2017-07-01T00:17:31.857Z,998.9
2017-07-01T00:18:09.935Z,998.9
2017-07-01T00:18:48.108Z,998.9
2017-07-01T00:19:25.714Z,998.9
2017-07-01T00:20:03.762Z,998.9
2017-07-01T00:20:41.432Z,998.9
2017-07-01T00:21:19.102Z,998.9
2017-07-01T00:21:56.872Z,998.9
2017-07-01T00:22:34.937Z,998.9
2017-07-01T00:23:12.908Z,998.9
2017-07-01T00:23:50.979Z,998.9
2017-07-01T00:24:29.245Z,998.9
2017-07-01T00:25:07.117Z,998.9
2017-07-01T00:25:44.991Z,998.9
2017-07-01T00:26:22.664Z,998.9
2017-07-01T00:27:00.530Z,998.8
2017-07-01T00:27:38.852Z,998.9
2017-07-01T00:28:16.621Z,998.8
2017-07-01T00:28:54.189Z,998.9
2017-07-01T00:29:32.055Z,998.9
2017-07-01T00:30:09.825Z,998.9
2017-07-01T00:30:48.100Z,998.9
2017-07-01T00:31:25.770Z,998.9
2017-07-01T00:32:03.541Z,998.9
2017-07-01T00:32:41.112Z,998.9
2017-07-01T00:33:18.785Z,998.9
2017-07-01T00:33:56.674Z,998.9
2017-07-01T00:34:34.943Z,998.9
2017-07-01T00:35:12.618Z,998.9
2017-07-01T00:35:50.392Z,998.9
2017-07-01T00:36:28.083Z,998.9
2017-07-01T00:37:06.134Z,998.9
2017-07-01T00:37:44.306Z,998.9
2017-07-01T00:38:22.171Z,998.9
2017-07-01T00:39:00.138Z,998.9
2017-07-01T00:39:38.415Z,998.9
2017-07-01T00:40:15.983Z,998.9
2017-07-01T00:40:53.756Z,998.9
2017-07-01T00:41:31.532Z,998.9
2017-07-01T00:42:09.428Z,998.9
2017-07-01T00:42:47.390Z,998.9
2017-07-01T00:43:25.258Z,998.9
2017-07-01T00:44:02.936Z,998.9
2017-07-01T00:44:40.823Z,998.9
2017-07-01T00:45:18.594Z,998.9
2017-07-01T00:45:56.468Z,998.9
2017-07-01T00:46:34.642Z,998.9
2017-07-01T00:47:12.228Z,998.9
2017-07-01T00:47:50.302Z,998.9
2017-07-01T00:48:28.071Z,998.8
2017-07-01T00:49:05.737Z,998.9
2017-07-01T00:49:43.314Z,998.9
2017-07-01T00:50:21.395Z,998.9
2017-07-01T00:50:59.171Z,998.9
2017-07-01T00:51:37.443Z,998.9
2017-07-01T00:52:15.508Z,998.9
2017-07-01T00:52:53.278Z,998.9
2017-07-01T00:53:31.256Z,998.8
2017-07-01T00:54:08.839Z,998.9
2017-07-01T00:54:46.708Z,998.9
2017-07-01T00:55:24.588Z,998.9
2017-07-01T00:56:02.760Z,998.8
2017-07-01T00:56:40.443Z,998.9
2017-07-01T00:57:18.515Z,998.8
2017-07-01T00:57:56.479Z,998.8
2017-07-01T00:58:34.452Z,998.8
2017-07-01T00:59:12.536Z,998.8
2017-07-01T00:59:50.305Z,998.8
2017-07-01T01:00:28.472Z,998.8
2017-07-01T01:01:06.643Z,998.8
2017-07-01T01:01:44.339Z,998.8
2017-07-01T01:02:22.406Z,998.7
2017-07-01T01:03:00.289Z,998.8
2017-07-01T01:03:38.462Z,998.7
2017-07-01T01:04:16.432Z,998.8
2017-07-01T01:04:54.605Z,998.8
2017-07-01T01:05:32.377Z,998.8
2017-07-01T01:06:10.359Z,998.8
2017-07-01T01:06:48.234Z,998.8
2017-07-01T01:07:26.007Z,998.8
2017-07-01T01:08:04.484Z,998.8
2017-07-01T01:08:42.550Z,998.8
2017-07-01T01:09:20.922Z,998.8
2017-07-01T01:09:58.894Z,998.8
2017-07-01T01:10:37.300Z,998.8
2017-07-01T01:11:15.066Z,998.8
2017-07-01T01:11:52.938Z,998.7
2017-07-01T01:12:30.908Z,998.7
2017-07-01T01:13:08.777Z,998.8
2017-07-01T01:13:46.354Z,998.7
2017-07-01T01:14:24.335Z,998.8
2017-07-01T01:15:02.202Z,998.7
2017-07-01T01:15:39.972Z,998.7
2017-07-01T01:16:17.647Z,998.7
2017-07-01T01:16:55.626Z,998.7
2017-07-01T01:17:33.593Z,998.7
2017-07-01T01:18:11.766Z,998.7
2017-07-01T01:18:49.659Z,998.7
2017-07-01T01:19:27.530Z,998.7
2017-07-01T01:20:05.504Z,998.7
2017-07-01T01:20:43.579Z,998.7
2017-07-01T01:21:21.677Z,998.7
2017-07-01T01:21:59.553Z,998.7
2017-07-01T01:22:37.222Z,998.7
2017-07-01T01:23:15.293Z,998.7
2017-07-01T01:23:53.157Z,998.7
2017-07-01T01:24:31.125Z,998.7
2017-07-01T01:25:08.817Z,998.7
2017-07-01T01:25:46.899Z,998.7
2017-07-01T01:26:24.468Z,998.7
2017-07-01T01:27:02.449Z,998.7
2017-07-01T01:27:40.426Z,998.7
2017-07-01T01:28:18.625Z,998.7
2017-07-01T01:28:56.601Z,998.7
2017-07-01T01:29:34.467Z,998.7
2017-07-01T01:30:12.546Z,998.7
2017-07-01T01:30:50.820Z,998.7
2017-07-01T01:31:29.099Z,998.7
2017-07-01T01:32:07.574Z,998.6
2017-07-01T01:32:45.349Z,998.7
2017-07-01T01:33:23.331Z,998.7
2017-07-01T01:34:01.500Z,998.6
2017-07-01T01:34:39.274Z,998.6
2017-07-01T01:35:17.141Z,998.6
2017-07-01T01:35:55.008Z,998.7
2017-07-01T01:36:32.786Z,998.6
2017-07-01T01:37:10.768Z,998.7
2017-07-01T01:37:48.837Z,998.7
2017-07-01T01:38:26.812Z,998.7
2017-07-01T01:39:04.487Z,998.7
2017-07-01T01:39:42.265Z,998.7
2017-07-01T01:40:20.033Z,998.7
2017-07-01T01:40:57.720Z,998.7
2017-07-01T01:41:35.896Z,998.6
2017-07-01T01:42:14.172Z,998.6
2017-07-01T01:42:52.144Z,998.6
2017-07-01T01:43:30.020Z,998.6
2017-07-01T01:44:07.784Z,998.6
2017-07-01T01:44:45.783Z,998.6
2017-07-01T01:45:23.850Z,998.6
2017-07-01T01:46:01.718Z,998.5
2017-07-01T01:46:39.697Z,998.6
2017-07-01T01:47:17.570Z,998.6
2017-07-01T01:47:55.544Z,998.5
2017-07-01T01:48:33.413Z,998.5
2017-07-01T01:49:11.282Z,998.4
2017-07-01T01:49:49.053Z,998.4
2017-07-01T01:50:26.722Z,998.5
2017-07-01T01:51:04.596Z,998.4
2017-07-01T01:51:42.467Z,998.4
2017-07-01T01:52:20.550Z,998.4
2017-07-01T01:52:58.313Z,998.4
2017-07-01T01:53:35.779Z,998.3
2017-07-01T01:54:13.766Z,998.3
2017-07-01T01:54:51.528Z,998.3
2017-07-01T01:55:29.807Z,998.3
2017-07-01T01:56:07.787Z,998.3
2017-07-01T01:56:45.771Z,998.2
2017-07-01T01:57:23.542Z,998.3
2017-07-01T01:58:01.332Z,998.2
2017-07-01T01:58:38.914Z,998.2
2017-07-01T01:59:17.119Z,998.2
2017-07-01T01:59:54.748Z,998.2
2017-07-01T02:00:32.525Z,998.2
2017-07-01T02:01:10.399Z,998.2
2017-07-01T02:01:48.068Z,998.2
2017-07-01T02:02:25.851Z,998.2
2017-07-01T02:03:03.542Z,998.2
2017-07-01T02:03:41.518Z,998.2
2017-07-01T02:04:19.268Z,998.2
2017-07-01T02:04:57.442Z,998.2
2017-07-01T02:05:35.314Z,998.2
2017-07-01T02:06:13.083Z,998.2
2017-07-01T02:06:50.873Z,998.2
2017-07-01T02:07:28.745Z,998.2
2017-07-01T02:08:06.618Z,998.2
2017-07-01T02:08:44.587Z,998.2
2017-07-01T02:09:22.361Z,998.2
2017-07-01T02:10:00.427Z,998.2
2017-07-01T02:10:38.406Z,998.2
2017-07-01T02:11:16.175Z,998.2
2017-07-01T02:11:53.859Z,998.2
2017-07-01T02:12:31.526Z,998.2
2017-07-01T02:13:09.518Z,998.2
2017-07-01T02:13:47.689Z,998.2
2017-07-01T02:14:25.379Z,998.2
2017-07-01T02:15:03.150Z,998.2
2017-07-01T02:15:40.922Z,998.2
2017-07-01T02:16:18.903Z,998.2
2017-07-01T02:16:56.776Z,998.2
2017-07-01T02:17:34.643Z,998.2
2017-07-01T02:18:12.621Z,998.2
2017-07-01T02:18:50.398Z,998.2
2017-07-01T02:19:28.468Z,998.2
2017-07-01T02:20:06.336Z,998.2
2017-07-01T02:20:44.110Z,998.2
2017-07-01T02:21:21.971Z,998.2
2017-07-01T02:22:00.148Z,998.2
2017-07-01T02:22:37.923Z,998.2
2017-07-01T02:23:15.800Z,998.2
2017-07-01T02:23:53.776Z,998.2
2017-07-01T02:24:31.536Z,998.2
2017-07-01T02:25:09.206Z,998.2
2017-07-01T02:25:47.176Z,998.2
2017-07-01T02:26:25.055Z,998.2
2017-07-01T02:27:02.933Z,998.3
2017-07-01T02:27:41.008Z,998.2
2017-07-01T02:28:18.880Z,998.2
2017-07-01T02:28:56.357Z,998.2
2017-07-01T02:29:34.024Z,998.2
2017-07-01T02:30:12.000Z,998.2
2017-07-01T02:30:49.471Z,998.2
2017-07-01T02:31:27.441Z,998.2
2017-07-01T02:32:05.410Z,998.2
2017-07-01T02:32:43.583Z,998.2
2017-07-01T02:33:21.556Z,998.2
2017-07-01T02:33:59.320Z,998.2
2017-07-01T02:34:37.199Z,998.2
2017-07-01T02:35:14.967Z,998.2
2017-07-01T02:35:52.651Z,998.2
2017-07-01T02:36:30.425Z,998.3
2017-07-01T02:37:08.196Z,998.3
2017-07-01T02:37:45.877Z,998.3
2017-07-01T02:38:23.840Z,998.3
2017-07-01T02:39:02.012Z,998.3
2017-07-01T02:39:39.886Z,998.3
2017-07-01T02:40:17.661Z,998.3
2017-07-01T02:40:55.635Z,998.3
2017-07-01T02:41:33.513Z,998.3
2017-07-01T02:42:11.385Z,998.3
2017-07-01T02:42:49.358Z,998.3
2017-07-01T02:43:27.125Z,998.3
2017-07-01T02:44:04.993Z,998.3
2017-07-01T02:44:42.672Z,998.3
2017-07-01T02:45:20.639Z,998.3
2017-07-01T02:45:58.808Z,998.3
2017-07-01T02:46:36.579Z,998.4
2017-07-01T02:47:14.653Z,998.3
2017-07-01T02:47:52.523Z,998.3
2017-07-01T02:48:30.691Z,998.3
2017-07-01T02:49:08.367Z,998.4
2017-07-01T02:49:46.342Z,998.3
2017-07-01T02:50:24.412Z,998.3
2017-07-01T02:51:02.488Z,998.4
2017-07-01T02:51:40.058Z,998.3
2017-07-01T02:52:17.927Z,998.4
2017-07-01T02:52:55.796Z,998.4
2017-07-01T02:53:33.367Z,998.3
2017-07-01T02:54:11.133Z,998.4
2017-07-01T02:54:49.107Z,998.3
2017-07-01T02:55:26.973Z,998.3
2017-07-01T02:56:04.747Z,998.3
2017-07-01T02:56:42.827Z,998.3
2017-07-01T02:57:20.792Z,998.3
2017-07-01T02:57:58.761Z,998.2
2017-07-01T02:58:36.332Z,998.3
2017-07-01T02:59:14.309Z,998.2
2017-07-01T02:59:52.181Z,998.3
2017-07-01T03:00:30.267Z,998.3
2017-07-01T03:01:08.343Z,998.2
2017-07-01T03:01:46.217Z,998.2
2017-07-01T03:02:24.397Z,998.2
2017-07-01T03:03:02.175Z,998.2
2017-07-01T03:03:39.953Z,998.2
2017-07-01T03:04:17.925Z,998.2
2017-07-01T03:04:55.894Z,998.3
2017-07-01T03:05:33.370Z,998.2
2017-07-01T03:06:11.440Z,998.2
2017-07-01T03:06:49.510Z,998.2
2017-07-01T03:07:27.183Z,998.2
2017-07-01T03:08:04.663Z,998.2
2017-07-01T03:08:42.632Z,998.2
2017-07-01T03:09:20.602Z,998.2
2017-07-01T03:09:58.671Z,998.2
2017-07-01T03:10:36.543Z,998.3
2017-07-01T03:11:14.718Z,998.3
2017-07-01T03:11:52.691Z,998.2
2017-07-01T03:12:30.545Z,998.3
2017-07-01T03:13:08.416Z,998.3
2017-07-01T03:13:46.397Z,998.2
2017-07-01T03:14:24.364Z,998.2
2017-07-01T03:15:02.037Z,998.2
2017-07-01T03:15:39.817Z,998.2
2017-07-01T03:16:17.712Z,998.2
2017-07-01T03:16:55.785Z,998.2
2017-07-01T03:17:33.557Z,998.2
2017-07-01T03:18:11.227Z,998.2
2017-07-01T03:18:48.995Z,998.1
2017-07-01T03:19:26.761Z,998.1
2017-07-01T03:20:04.632Z,998.2
2017-07-01T03:20:42.502Z,998.1
2017-07-01T03:21:20.176Z,998.1
2017-07-01T03:21:58.146Z,998.1
2017-07-01T03:22:35.721Z,998.1
2017-07-01T03:23:13.297Z,998.1
2017-07-01T03:23:50.966Z,998.1
2017-07-01T03:24:28.938Z,998.2
2017-07-01T03:25:07.111Z,998.1
2017-07-01T03:25:45.199Z,998.1
2017-07-01T03:26:24.719Z,998.1
2017-07-01T03:27:02.389Z,998.1
2017-07-01T03:27:40.165Z,998.1
2017-07-01T03:28:18.236Z,998.1
2017-07-01T03:28:56.009Z,998.2
2017-07-01T03:29:33.683Z,998.1
2017-07-01T03:30:11.548Z,998.2
2017-07-01T03:30:49.320Z,998.1
2017-07-01T03:31:27.300Z,998.1
2017-07-01T03:32:05.171Z,998.1
2017-07-01T03:32:43.038Z,998.1
2017-07-01T03:33:20.920Z,998.1
2017-07-01T03:33:58.704Z,998.1
2017-07-01T03:34:36.674Z,998.1
2017-07-01T03:35:14.347Z,998.1
2017-07-01T03:35:52.423Z,998.0
2017-07-01T03:36:30.956Z,998.1
2017-07-01T03:37:08.836Z,998.1
2017-07-01T03:37:46.910Z,998.1
2017-07-01T03:38:24.989Z,998.1
2017-07-01T03:39:02.760Z,998.1
2017-07-01T03:39:40.631Z,998.1
2017-07-01T03:40:18.706Z,998.1
2017-07-01T03:40:56.576Z,998.1
2017-07-01T03:41:34.742Z,998.2
2017-07-01T03:42:12.727Z,998.2
2017-07-01T03:42:50.499Z,998.2
2017-07-01T03:43:28.677Z,998.1
2017-07-01T03:44:06.645Z,998.2
2017-07-01T03:44:44.330Z,998.2
2017-07-01T03:45:22.304Z,998.2
2017-07-01T03:46:00.474Z,998.2
2017-07-01T03:46:38.365Z,998.3
2017-07-01T03:47:16.039Z,998.2
2017-07-01T03:47:53.715Z,998.2
2017-07-01T03:48:31.595Z,998.2
2017-07-01T03:49:09.696Z,998.2
2017-07-01T03:49:47.372Z,998.2
2017-07-01T03:50:25.342Z,998.1
2017-07-01T03:51:03.430Z,998.2
2017-07-01T03:51:41.810Z,998.2
2017-07-01T03:52:19.978Z,998.2
2017-07-01T03:52:57.648Z,998.2
2017-07-01T03:53:35.524Z,998.2
2017-07-01T03:54:13.195Z,998.2
2017-07-01T03:54:51.384Z,998.2
2017-07-01T03:55:29.663Z,998.2
2017-07-01T03:56:07.643Z,998.1
2017-07-01T03:56:45.450Z,998.2
2017-07-01T03:57:23.318Z,998.1
2017-07-01T03:58:01.492Z,998.2
2017-07-01T03:58:39.359Z,998.2
2017-07-01T03:59:17.236Z,998.2
2017-07-01T03:59:55.113Z,998.2
2017-07-01T04:00:32.891Z,998.2
2017-07-01T04:01:10.666Z,998.2
2017-07-01T04:01:48.437Z,998.2
2017-07-01T04:02:26.541Z,998.2
2017-07-01T04:03:04.410Z,998.2
2017-07-01T04:03:42.382Z,998.2
2017-07-01T04:04:20.355Z,998.2
2017-07-01T04:04:58.147Z,998.2
2017-07-01T04:05:35.817Z,998.2
2017-07-01T04:06:13.499Z,998.2
2017-07-01T04:06:51.192Z,998.1
2017-07-01T04:07:28.775Z,998.2
2017-07-01T04:08:06.641Z,998.2
2017-07-01T04:08:44.532Z,998.1
2017-07-01T04:09:22.405Z,998.1
2017-07-01T04:10:00.580Z,998.1
2017-07-01T04:10:38.462Z,998.1
2017-07-01T04:11:16.234Z,998.1
2017-07-01T04:11:53.909Z,998.1
2017-07-01T04:12:31.779Z,998.1
2017-07-01T04:13:09.560Z,998.1
2017-07-01T04:13:47.363Z,998.1
2017-07-01T04:14:25.351Z,998.1
2017-07-01T04:15:03.014Z,998.1
2017-07-01T04:15:40.891Z,998.0
2017-07-01T04:16:18.867Z,998.1
2017-07-01T04:16:56.641Z,998.1
2017-07-01T04:17:34.633Z,998.1
2017-07-01T04:18:12.718Z,998.1
2017-07-01T04:18:50.392Z,998.1
2017-07-01T04:19:28.561Z,998.0
2017-07-01T04:20:06.444Z,998.1
2017-07-01T04:20:44.519Z,998.1
2017-07-01T04:21:22.391Z,998.1
2017-07-01T04:22:00.272Z,998.1
2017-07-01T04:22:38.048Z,998.0
2017-07-01T04:23:15.829Z,998.0
2017-07-01T04:23:53.702Z,998.0
2017-07-01T04:24:31.382Z,998.0
2017-07-01T04:25:09.257Z,998.0
2017-07-01T04:25:46.733Z,998.0
2017-07-01T04:26:24.814Z,998.0
2017-07-01T04:27:02.594Z,998.0
2017-07-01T04:27:40.467Z,998.1
2017-07-01T04:28:18.346Z,998.0
2017-07-01T04:28:56.419Z,998.0
2017-07-01T04:29:34.592Z,998.0
2017-07-01T04:30:12.373Z,998.0
2017-07-01T04:30:50.354Z,998.0
2017-07-01T04:31:28.135Z,998.0
2017-07-01T04:32:06.305Z,998.0
2017-07-01T04:32:44.287Z,998.0
2017-07-01T04:33:22.360Z,998.0
2017-07-01T04:34:00.439Z,998.0
2017-07-01T04:34:38.406Z,998.0
2017-07-01T04:35:16.335Z,998.0
2017-07-01T04:35:54.314Z,998.0
2017-07-01T04:36:31.786Z,998.0
2017-07-01T04:37:09.798Z,998.0
2017-07-01T04:37:47.475Z,998.0
2017-07-01T04:38:25.052Z,998.1
2017-07-01T04:39:03.246Z,998.1
2017-07-01T04:39:40.823Z,998.1
2017-07-01T04:40:18.499Z,998.1
2017-07-01T04:40:56.464Z,998.1
2017-07-01T04:41:34.645Z,998.0
2017-07-01T04:42:12.521Z,998.1
2017-07-01T04:42:50.420Z,998.1
2017-07-01T04:43:28.295Z,998.1
2017-07-01T04:44:06.285Z,998.1
2017-07-01T04:44:44.363Z,998.1
2017-07-01T04:45:22.412Z,998.1
2017-07-01T04:46:01.093Z,998.2
2017-07-01T04:46:38.968Z,998.2
2017-07-01T04:47:16.843Z,998.3
2017-07-01T04:47:55.022Z,998.2
2017-07-01T04:48:32.605Z,998.2
2017-07-01T04:49:10.193Z,998.2
2017-07-01T04:49:47.868Z,998.2
2017-07-01T04:50:25.849Z,998.2
2017-07-01T04:51:03.828Z,998.1
2017-07-01T04:51:41.614Z,998.1
2017-07-01T04:52:19.587Z,998.1
2017-07-01T04:52:57.465Z,998.1
2017-07-01T04:53:35.848Z,998.2
2017-07-01T04:54:13.828Z,998.1
2017-07-01T04:54:51.895Z,998.1
2017-07-01T04:55:29.673Z,998.2
2017-07-01T04:56:07.345Z,998.2
2017-07-01T04:56:45.124Z,998.1
2017-07-01T04:57:22.796Z,998.1
2017-07-01T04:58:00.871Z,998.1
2017-07-01T04:58:39.458Z,998.2
2017-07-01T04:59:17.241Z,998.1
2017-07-01T04:59:55.019Z,998.1
2017-07-01T05:00:32.795Z,998.1
2017-07-01T05:01:10.475Z,998.1
2017-07-01T05:01:48.355Z,998.1
2017-07-01T05:02:25.936Z,998.1
2017-07-01T05:03:03.703Z,998.1
2017-07-01T05:03:41.485Z,998.1
2017-07-01T05:04:19.440Z,998.1
2017-07-01T05:04:57.518Z,998.2
2017-07-01T05:05:35.486Z,998.1
2017-07-01T05:06:13.172Z,998.1
2017-07-01T05:06:50.851Z,998.1
2017-07-01T05:07:28.817Z,998.1
2017-07-01T05:08:06.697Z,998.1
2017-07-01T05:08:44.570Z,998.2
2017-07-01T05:09:22.644Z,998.2
2017-07-01T05:10:00.419Z,998.1
2017-07-01T05:10:38.289Z,998.1
2017-07-01T05:11:15.959Z,998.2
2017-07-01T05:11:53.735Z,998.2
2017-07-01T05:12:31.620Z,998.1
2017-07-01T05:13:09.198Z,998.2
2017-07-01T05:13:47.375Z,998.2
2017-07-01T05:14:25.054Z,998.3
2017-07-01T05:15:02.731Z,998.2
2017-07-01T05:15:40.405Z,998.2
2017-07-01T05:16:18.279Z,998.2
2017-07-01T05:16:56.253Z,998.2
2017-07-01T05:17:33.732Z,998.2
2017-07-01T05:18:11.508Z,998.2
2017-07-01T05:18:49.292Z,998.2
2017-07-01T05:19:27.466Z,998.2
2017-07-01T05:20:05.348Z,998.2
2017-07-01T05:20:43.433Z,998.3
2017-07-01T05:21:21.406Z,998.2
2017-07-01T05:21:59.086Z,998.3
2017-07-01T05:22:36.768Z,998.2
2017-07-01T05:23:14.541Z,998.3
2017-07-01T05:23:52.221Z,998.2
2017-07-01T05:24:30.105Z,998.2
2017-07-01T05:25:07.870Z,998.3
2017-07-01T05:25:46.049Z,998.2
2017-07-01T05:26:26.380Z,998.2
2017-07-01T05:27:04.464Z,998.2
2017-07-01T05:27:42.235Z,998.3
2017-07-01T05:28:20.412Z,998.2
2017-07-01T05:28:58.189Z,998.3
2017-07-01T05:29:36.168Z,998.3
2017-07-01T05:30:13.938Z,998.2
2017-07-01T05:30:51.714Z,998.3
2017-07-01T05:31:29.489Z,998.3
2017-07-01T05:32:07.367Z,998.3
2017-07-01T05:32:45.149Z,998.3
2017-07-01T05:33:23.222Z,998.3
2017-07-01T05:34:01.113Z,998.4
2017-07-01T05:34:39.231Z,998.3
2017-07-01T05:35:17.224Z,998.4
2017-07-01T05:35:55.094Z,998.4
2017-07-01T05:36:33.180Z,998.4
2017-07-01T05:37:11.473Z,998.3
2017-07-01T05:37:49.256Z,998.4
2017-07-01T05:38:26.835Z,998.4
2017-07-01T05:39:04.911Z,998.3
2017-07-01T05:39:42.886Z,998.3
2017-07-01T05:40:20.865Z,998.4
2017-07-01T05:40:58.834Z,998.4
2017-07-01T05:41:36.624Z,998.4
2017-07-01T05:42:14.711Z,998.4
2017-07-01T05:42:52.492Z,998.4
2017-07-01T05:43:31.439Z,998.4
2017-07-01T05:44:09.410Z,998.4
2017-07-01T05:44:47.389Z,998.4
2017-07-01T05:45:24.963Z,998.3
2017-07-01T05:46:03.135Z,998.4
2017-07-01T05:46:41.116Z,998.4
2017-07-01T05:47:19.080Z,998.4
2017-07-01T05:47:57.158Z,998.4
2017-07-01T05:48:35.033Z,998.4
2017-07-01T05:49:12.810Z,998.4
2017-07-01T05:49:50.591Z,998.4
2017-07-01T05:50:28.460Z,998.5
2017-07-01T05:51:06.340Z,998.4
2017-07-01T05:51:44.212Z,998.4
2017-07-01T05:52:22.291Z,998.4
2017-07-01T05:53:00.266Z,998.5
2017-07-01T05:53:38.137Z,998.5
2017-07-01T05:54:15.916Z,998.5
2017-07-01T05:54:53.992Z,998.4
2017-07-01T05:55:31.968Z,998.5
2017-07-01T05:56:09.838Z,998.5
2017-07-01T05:56:47.714Z,998.5
2017-07-01T05:57:25.508Z,998.5
2017-07-01T05:58:03.292Z,998.5
2017-07-01T05:58:41.381Z,998.5
2017-07-01T05:59:19.255Z,998.5
2017-07-01T05:59:57.034Z,998.5
2017-07-01T06:00:34.602Z,998.5
2017-07-01T06:01:12.679Z,998.5
2017-07-01T06:01:50.760Z,998.5
2017-07-01T06:02:28.835Z,998.5
2017-07-01T06:03:07.009Z,998.5
2017-07-01T06:03:44.782Z,998.5
2017-07-01T06:04:22.563Z,998.5
2017-07-01T06:05:00.648Z,998.5
2017-07-01T06:05:39.034Z,998.5
2017-07-01T06:06:17.107Z,998.5
2017-07-01T06:06:54.981Z,998.5
2017-07-01T06:07:32.952Z,998.6
2017-07-01T06:08:10.828Z,998.5
2017-07-01T06:08:48.695Z,998.6
2017-07-01T06:09:26.968Z,998.6
2017-07-01T06:10:04.735Z,998.6
2017-07-01T06:10:42.714Z,998.6
2017-07-01T06:11:20.584Z,998.6
2017-07-01T06:11:58.454Z,998.6
2017-07-01T06:12:36.030Z,998.6
2017-07-01T06:13:13.806Z,998.6
2017-07-01T06:13:51.983Z,998.7
2017-07-01T06:14:29.755Z,998.6
2017-07-01T06:15:07.633Z,998.7
2017-07-01T06:15:45.309Z,998.7
2017-07-01T06:16:24.034Z,998.6
2017-07-01T06:17:02.321Z,998.7
2017-07-01T06:17:40.009Z,998.7
2017-07-01T06:18:17.683Z,998.7
2017-07-01T06:18:55.458Z,998.7
2017-07-01T06:19:33.040Z,998.7
2017-07-01T06:20:10.917Z,998.7
2017-07-01T06:20:48.885Z,998.7
2017-07-01T06:21:26.558Z,998.7
2017-07-01T06:22:04.435Z,998.7
2017-07-01T06:22:42.120Z,998.7
2017-07-01T06:23:19.790Z,998.7
2017-07-01T06:23:57.968Z,998.8
2017-07-01T06:24:35.542Z,998.7
2017-07-01T06:25:13.513Z,998.7
2017-07-01T06:25:51.008Z,998.7
2017-07-01T06:26:28.640Z,998.7
2017-07-01T06:27:06.618Z,998.7
2017-07-01T06:27:44.907Z,998.8
2017-07-01T06:28:22.886Z,998.8
2017-07-01T06:29:00.876Z,998.8
2017-07-01T06:29:38.649Z,998.8
2017-07-01T06:30:16.625Z,998.8
2017-07-01T06:30:54.309Z,998.8
2017-07-01T06:31:31.988Z,998.8
2017-07-01T06:32:09.565Z,998.8
2017-07-01T06:32:47.147Z,998.8
2017-07-01T06:33:25.334Z,998.8
2017-07-01T06:34:03.506Z,998.8
2017-07-01T06:34:41.376Z,998.9
2017-07-01T06:35:19.356Z,998.8
2017-07-01T06:35:58.562Z,998.8
2017-07-01T06:36:36.236Z,998.9
2017-07-01T06:37:13.834Z,998.9
2017-07-01T06:37:51.806Z,998.9
2017-07-01T06:38:29.886Z,998.9
2017-07-01T06:39:07.858Z,998.9
2017-07-01T06:39:45.746Z,998.9
2017-07-01T06:40:23.723Z,998.9
2017-07-01T06:41:01.704Z,998.9
2017-07-01T06:41:39.383Z,998.9
2017-07-01T06:42:17.145Z,998.9
2017-07-01T06:42:55.260Z,998.9
2017-07-01T06:43:33.134Z,998.9
2017-07-01T06:44:11.018Z,998.9
2017-07-01T06:44:48.795Z,998.9
2017-07-01T06:45:26.671Z,998.9
2017-07-01T06:46:04.558Z,998.9
2017-07-01T06:46:42.144Z,998.9
2017-07-01T06:47:20.220Z,998.9
2017-07-01T06:47:58.123Z,998.9
2017-07-01T06:48:35.904Z,998.9
2017-07-01T06:49:13.590Z,998.9
2017-07-01T06:49:51.274Z,999.0
2017-07-01T06:50:29.351Z,999.0
2017-07-01T06:51:07.434Z,999.0
2017-07-01T06:51:45.507Z,999.0
2017-07-01T06:52:23.388Z,999.0
2017-07-01T06:53:01.077Z,999.0
2017-07-01T06:53:38.747Z,999.0
2017-07-01T06:54:16.632Z,999.0
2017-07-01T06:54:54.521Z,999.0
2017-07-01T06:55:32.500Z,999.0
2017-07-01T06:56:10.385Z,999.0
2017-07-01T06:56:47.966Z,999.0
2017-07-01T06:57:26.070Z,999.0
2017-07-01T06:58:04.528Z,999.0
2017-07-01T06:58:42.223Z,999.1
2017-07-01T06:59:20.201Z,999.1
2017-07-01T06:59:58.178Z,999.1
2017-07-01T07:00:36.061Z,999.1
2017-07-01T07:01:14.046Z,999.1
2017-07-01T07:01:51.931Z,999.1
2017-07-01T07:02:29.609Z,999.1
2017-07-01T07:03:07.589Z,999.1
2017-07-01T07:03:45.179Z,999.1
2017-07-01T07:04:23.054Z,999.1
2017-07-01T07:05:01.035Z,999.1
2017-07-01T07:05:38.748Z,999.1
2017-07-01T07:06:16.521Z,999.1
2017-07-01T07:06:54.714Z,999.1
2017-07-01T07:07:32.590Z,999.1
2017-07-01T07:08:10.673Z,999.1
2017-07-01T07:08:48.557Z,999.1
2017-07-01T07:09:26.236Z,999.1
2017-07-01T07:10:04.224Z,999.1
2017-07-01T07:10:42.098Z,999.2
2017-07-01T07:11:20.193Z,999.2
2017-07-01T07:11:57.770Z,999.1
2017-07-01T07:12:35.457Z,999.1
2017-07-01T07:13:13.245Z,999.2
2017-07-01T07:13:51.020Z,999.2
2017-07-01T07:14:28.609Z,999.2
2017-07-01T07:15:06.592Z,999.2
2017-07-01T07:15:44.372Z,999.2
2017-07-01T07:16:24.067Z,999.2
2017-07-01T07:17:01.302Z,999.2
2017-07-01T07:17:39.682Z,999.2
2017-07-01T07:18:17.462Z,999.2
2017-07-01T07:18:54.935Z,999.2
2017-07-01T07:19:32.518Z,999.2
2017-07-01T07:20:10.299Z,999.2
2017-07-01T07:20:48.276Z,999.2
2017-07-01T07:21:26.355Z,999.2
2017-07-01T07:22:04.236Z,999.2
2017-07-01T07:22:42.017Z,999.2
2017-07-01T07:23:19.998Z,999.3
2017-07-01T07:23:58.276Z,999.2
2017-07-01T07:24:36.253Z,999.3
2017-07-01T07:25:14.132Z,999.2
2017-07-01T07:25:52.207Z,999.2
2017-07-01T07:26:30.182Z,999.2
2017-07-01T07:27:08.259Z,999.3
2017-07-01T07:27:46.444Z,999.2
2017-07-01T07:28:24.826Z,999.2
2017-07-01T07:29:02.907Z,999.3
2017-07-01T07:29:40.681Z,999.2
2017-07-01T07:30:18.560Z,999.3
2017-07-01T07:30:56.338Z,999.3
2017-07-01T07:31:34.438Z,999.3
2017-07-01T07:32:12.516Z,999.3
2017-07-01T07:32:50.592Z,999.3
2017-07-01T07:33:28.878Z,999.3
2017-07-01T07:34:06.971Z,999.3
2017-07-01T07:34:44.957Z,999.3
2017-07-01T07:35:23.041Z,999.3
2017-07-01T07:36:00.931Z,999.3
2017-07-01T07:36:38.712Z,999.3
2017-07-01T07:37:16.695Z,999.3
2017-07-01T07:37:54.369Z,999.3
2017-07-01T07:38:32.541Z,999.3
2017-07-01T07:39:10.427Z,999.3
2017-07-01T07:39:48.311Z,999.3
2017-07-01T07:40:26.195Z,999.3
2017-07-01T07:41:03.982Z,999.3
2017-07-01T07:41:41.865Z,999.3
2017-07-01T07:42:19.749Z,999.3
2017-07-01T07:42:57.435Z,999.3
2017-07-01T07:43:35.217Z,999.3
2017-07-01T07:44:13.208Z,999.3
2017-07-01T07:44:50.984Z,999.4
2017-07-01T07:45:29.064Z,999.4
2017-07-01T07:46:06.946Z,999.4
2017-07-01T07:46:44.722Z,999.4
2017-07-01T07:47:22.808Z,999.4
2017-07-01T07:48:00.689Z,999.4
2017-07-01T07:48:38.271Z,999.4
2017-07-01T07:49:16.146Z,999.4
2017-07-01T07:49:53.828Z,999.4
2017-07-01T07:50:32.021Z,999.4
2017-07-01T07:51:10.003Z,999.4
2017-07-01T07:51:47.986Z,999.4
2017-07-01T07:52:25.670Z,999.4
2017-07-01T07:53:03.541Z,999.4
2017-07-01T07:53:41.521Z,999.4
2017-07-01T07:54:19.467Z,999.4
2017-07-01T07:54:57.549Z,999.4
2017-07-01T07:55:35.526Z,999.4
2017-07-01T07:56:13.625Z,999.4
2017-07-01T07:56:51.508Z,999.4
2017-07-01T07:57:29.593Z,999.4
2017-07-01T07:58:07.568Z,999.4
2017-07-01T07:58:45.652Z,999.4
2017-07-01T07:59:23.640Z,999.4
2017-07-01T08:00:01.622Z,999.4
2017-07-01T08:00:39.410Z,999.4
2017-07-01T08:01:17.293Z,999.4
2017-07-01T08:01:54.980Z,999.4
2017-07-01T08:02:32.562Z,999.4
2017-07-01T08:03:10.545Z,999.5
2017-07-01T08:03:48.324Z,999.5
2017-07-01T08:04:26.210Z,999.5
2017-07-01T08:05:04.298Z,999.5
2017-07-01T08:05:41.885Z,999.5
2017-07-01T08:06:19.871Z,999.4
2017-07-01T08:06:57.650Z,999.5
2017-07-01T08:07:35.634Z,999.4
2017-07-01T08:08:13.518Z,999.4